sensor_id;sensor_type;location;lat;lon;timestamp;P1;durP1;ratioP1;P2;durP2;ratioP2
77304;SDS011;66364;52.622;7.746;2023-07-08T00:00:38;5.93;;;4.60;;
77304;SDS011;66364;52.622;7.746;2023-07-08T00:02:39;5.83;;;5.23;;
77304;SDS011;66364;52.622;7.746;2023-07-08T00:04:43;7.35;;;6.58;;
77304;SDS011;66364;52.622;7.746;2023-07-08T00:06:45;6.28;;;5.53;;
77304;SDS011;66364;52.622;7.746;2023-07-08T00:08:47;6.45;;;5.92;;
77304;SDS011;66364;52.622;7.746;2023-07-08T00:10:48;5.62;;;5.12;;
77304;SDS011;66364;52.622;7.746;2023-07-08T00:12:49;6.33;;;5.30;;
77304;SDS011;66364;52.622;7.746;2023-07-08T00:14:52;6.42;;;5.30;;
77304;SDS011;66364;52.622;7.746;2023-07-08T00:16:53;7.13;;;5.27;;
77304;SDS011;66364;52.622;7.746;2023-07-08T00:18:53;6.53;;;5.83;;
77304;SDS011;66364;52.622;7.746;2023-07-08T00:20:55;6.15;;;5.55;;
77304;SDS011;66364;52.622;7.746;2023-07-08T00:22:57;6.25;;;5.72;;
77304;SDS011;66364;52.622;7.746;2023-07-08T00:24:58;5.60;;;5.10;;
77304;SDS011;66364;52.622;7.746;2023-07-08T00:27:01;6.53;;;5.92;;
77304;SDS011;66364;52.622;7.746;2023-07-08T00:29:08;5.67;;;5.17;;
77304;SDS011;66364;52.622;7.746;2023-07-08T00:31:11;6.53;;;5.20;;
77304;SDS011;66364;52.622;7.746;2023-07-08T00:33:14;6.08;;;5.47;;
77304;SDS011;66364;52.622;7.746;2023-07-08T00:35:16;8.28;;;5.62;;
77304;SDS011;66364;52.622;7.746;2023-07-08T00:37:19;6.20;;;5.60;;
77304;SDS011;66364;52.622;7.746;2023-07-08T00:39:20;5.73;;;5.17;;
77304;SDS011;66364;52.622;7.746;2023-07-08T00:46:01;6.55;;;5.40;;
77304;SDS011;66364;52.622;7.746;2023-07-08T00:48:15;5.90;;;5.40;;
77304;SDS011;66364;52.622;7.746;2023-07-08T00:50:09;6.72;;;5.47;;
77304;SDS011;66364;52.622;7.746;2023-07-08T00:52:21;5.70;;;5.07;;
77304;SDS011;66364;52.622;7.746;2023-07-08T00:54:22;8.78;;;5.85;;
77304;SDS011;66364;52.622;7.746;2023-07-08T00:56:25;5.03;;;4.60;;
77304;SDS011;66364;52.622;7.746;2023-07-08T00:58:31;7.35;;;5.85;;
77304;SDS011;66364;52.622;7.746;2023-07-08T01:00:34;5.90;;;5.30;;
77304;SDS011;66364;52.622;7.746;2023-07-08T01:02:36;6.23;;;5.20;;
77304;SDS011;66364;52.622;7.746;2023-07-08T01:06:52;6.30;;;5.80;;
77304;SDS011;66364;52.622;7.746;2023-07-08T01:08:54;7.87;;;6.42;;
77304;SDS011;66364;52.622;7.746;2023-07-08T01:11:01;6.60;;;5.12;;
77304;SDS011;66364;52.622;7.746;2023-07-08T01:13:05;5.55;;;5.00;;
77304;SDS011;66364;52.622;7.746;2023-07-08T01:15:09;6.37;;;5.58;;
77304;SDS011;66364;52.622;7.746;2023-07-08T01:17:11;5.92;;;5.30;;
77304;SDS011;66364;52.622;7.746;2023-07-08T01:19:14;7.58;;;6.78;;
77304;SDS011;66364;52.622;7.746;2023-07-08T01:23:34;6.47;;;5.87;;
77304;SDS011;66364;52.622;7.746;2023-07-08T01:25:37;5.37;;;4.87;;
77304;SDS011;66364;52.622;7.746;2023-07-08T01:27:39;7.37;;;5.20;;
77304;SDS011;66364;52.622;7.746;2023-07-08T01:29:46;5.42;;;4.95;;
77304;SDS011;66364;52.622;7.746;2023-07-08T01:31:47;9.08;;;6.92;;
77304;SDS011;66364;52.622;7.746;2023-07-08T01:33:48;8.15;;;6.53;;
77304;SDS011;66364;52.622;7.746;2023-07-08T01:35:50;5.85;;;5.25;;
77304;SDS011;66364;52.622;7.746;2023-07-08T01:37:53;6.83;;;5.15;;
77304;SDS011;66364;52.622;7.746;2023-07-08T01:39:57;7.83;;;5.80;;
77304;SDS011;66364;52.622;7.746;2023-07-08T01:41:58;5.87;;;5.27;;
77304;SDS011;66364;52.622;7.746;2023-07-08T01:43:59;6.97;;;6.30;;
77304;SDS011;66364;52.622;7.746;2023-07-08T01:46:00;7.30;;;6.10;;
77304;SDS011;66364;52.622;7.746;2023-07-08T01:48:03;6.95;;;6.35;;
77304;SDS011;66364;52.622;7.746;2023-07-08T01:50:07;11.95;;;6.60;;
77304;SDS011;66364;52.622;7.746;2023-07-08T01:52:11;7.45;;;6.05;;
77304;SDS011;66364;52.622;7.746;2023-07-08T01:54:15;6.92;;;6.05;;
77304;SDS011;66364;52.622;7.746;2023-07-08T01:56:16;5.97;;;5.47;;
77304;SDS011;66364;52.622;7.746;2023-07-08T01:58:17;7.85;;;6.50;;
77304;SDS011;66364;52.622;7.746;2023-07-08T02:00:18;7.50;;;6.43;;
77304;SDS011;66364;52.622;7.746;2023-07-08T02:02:19;9.70;;;6.55;;
77304;SDS011;66364;52.622;7.746;2023-07-08T02:04:21;7.50;;;6.90;;
77304;SDS011;66364;52.622;7.746;2023-07-08T02:06:22;7.78;;;7.10;;
77304;SDS011;66364;52.622;7.746;2023-07-08T02:08:23;7.10;;;6.50;;
77304;SDS011;66364;52.622;7.746;2023-07-08T02:10:24;7.40;;;6.70;;
77304;SDS011;66364;52.622;7.746;2023-07-08T02:12:25;6.57;;;6.00;;
77304;SDS011;66364;52.622;7.746;2023-07-08T02:14:26;7.97;;;7.10;;
77304;SDS011;66364;52.622;7.746;2023-07-08T02:16:27;8.43;;;6.60;;
77304;SDS011;66364;52.622;7.746;2023-07-08T02:18:28;8.00;;;7.30;;
77304;SDS011;66364;52.622;7.746;2023-07-08T02:20:29;7.10;;;6.40;;
77304;SDS011;66364;52.622;7.746;2023-07-08T02:22:30;6.50;;;6.00;;
77304;SDS011;66364;52.622;7.746;2023-07-08T02:24:30;8.75;;;6.72;;
77304;SDS011;66364;52.622;7.746;2023-07-08T02:26:33;7.40;;;6.35;;
77304;SDS011;66364;52.622;7.746;2023-07-08T02:28:34;7.20;;;6.50;;
77304;SDS011;66364;52.622;7.746;2023-07-08T02:30:35;9.30;;;7.10;;
77304;SDS011;66364;52.622;7.746;2023-07-08T02:32:36;8.83;;;7.10;;
77304;SDS011;66364;52.622;7.746;2023-07-08T02:34:38;8.15;;;7.35;;
77304;SDS011;66364;52.622;7.746;2023-07-08T02:36:39;8.43;;;7.55;;
77304;SDS011;66364;52.622;7.746;2023-07-08T02:38:40;9.00;;;7.80;;
77304;SDS011;66364;52.622;7.746;2023-07-08T02:40:41;7.10;;;6.50;;
77304;SDS011;66364;52.622;7.746;2023-07-08T02:42:44;7.67;;;6.87;;
77304;SDS011;66364;52.622;7.746;2023-07-08T02:44:45;9.08;;;7.90;;
77304;SDS011;66364;52.622;7.746;2023-07-08T02:46:47;7.95;;;7.20;;
77304;SDS011;66364;52.622;7.746;2023-07-08T02:48:48;10.70;;;7.80;;
77304;SDS011;66364;52.622;7.746;2023-07-08T02:50:49;8.75;;;7.85;;
77304;SDS011;66364;52.622;7.746;2023-07-08T02:52:51;7.10;;;6.50;;
77304;SDS011;66364;52.622;7.746;2023-07-08T02:54:52;9.23;;;7.87;;
77304;SDS011;66364;52.622;7.746;2023-07-08T02:56:53;8.67;;;7.80;;
77304;SDS011;66364;52.622;7.746;2023-07-08T02:58:55;9.08;;;7.25;;
77304;SDS011;66364;52.622;7.746;2023-07-08T03:00:56;9.90;;;7.47;;
77304;SDS011;66364;52.622;7.746;2023-07-08T03:02:58;8.00;;;7.30;;
77304;SDS011;66364;52.622;7.746;2023-07-08T03:04:59;8.80;;;7.93;;
77304;SDS011;66364;52.622;7.746;2023-07-08T03:07:00;8.40;;;7.60;;
77304;SDS011;66364;52.622;7.746;2023-07-08T03:09:01;8.03;;;7.33;;
77304;SDS011;66364;52.622;7.746;2023-07-08T03:11:02;8.67;;;7.47;;
77304;SDS011;66364;52.622;7.746;2023-07-08T03:13:05;8.95;;;8.15;;
77304;SDS011;66364;52.622;7.746;2023-07-08T03:15:06;8.50;;;7.47;;
77304;SDS011;66364;52.622;7.746;2023-07-08T03:17:07;8.78;;;8.08;;
77304;SDS011;66364;52.622;7.746;2023-07-08T03:19:10;9.28;;;7.70;;
77304;SDS011;66364;52.622;7.746;2023-07-08T03:21:15;9.83;;;8.80;;
77304;SDS011;66364;52.622;7.746;2023-07-08T03:23:17;8.80;;;8.00;;
77304;SDS011;66364;52.622;7.746;2023-07-08T03:25:18;12.05;;;7.53;;
77304;SDS011;66364;52.622;7.746;2023-07-08T03:27:19;8.03;;;7.43;;
77304;SDS011;66364;52.622;7.746;2023-07-08T03:29:20;10.67;;;7.43;;
77304;SDS011;66364;52.622;7.746;2023-07-08T03:31:21;8.00;;;6.87;;
77304;SDS011;66364;52.622;7.746;2023-07-08T03:33:22;8.30;;;7.50;;
77304;SDS011;66364;52.622;7.746;2023-07-08T03:35:22;8.13;;;7.43;;
77304;SDS011;66364;52.622;7.746;2023-07-08T03:37:24;9.15;;;8.13;;
77304;SDS011;66364;52.622;7.746;2023-07-08T03:39:24;9.70;;;8.17;;
77304;SDS011;66364;52.622;7.746;2023-07-08T03:41:26;10.20;;;9.30;;
77304;SDS011;66364;52.622;7.746;2023-07-08T03:43:26;8.50;;;7.70;;
77304;SDS011;66364;52.622;7.746;2023-07-08T03:45:27;9.50;;;8.23;;
77304;SDS011;66364;52.622;7.746;2023-07-08T03:47:29;7.90;;;7.20;;
77304;SDS011;66364;52.622;7.746;2023-07-08T03:49:29;9.23;;;7.33;;
77304;SDS011;66364;52.622;7.746;2023-07-08T03:51:32;9.37;;;8.47;;
77304;SDS011;66364;52.622;7.746;2023-07-08T03:53:35;8.75;;;7.58;;
77304;SDS011;66364;52.622;7.746;2023-07-08T03:55:36;10.43;;;7.77;;
77304;SDS011;66364;52.622;7.746;2023-07-08T03:57:36;8.30;;;7.60;;
77304;SDS011;66364;52.622;7.746;2023-07-08T03:59:37;9.73;;;8.73;;
77304;SDS011;66364;52.622;7.746;2023-07-08T04:01:38;7.90;;;7.20;;
77304;SDS011;66364;52.622;7.746;2023-07-08T04:03:39;14.20;;;8.17;;
77304;SDS011;66364;52.622;7.746;2023-07-08T04:05:40;7.92;;;7.12;;
77304;SDS011;66364;52.622;7.746;2023-07-08T04:07:41;9.33;;;7.97;;
77304;SDS011;66364;52.622;7.746;2023-07-08T04:09:42;6.77;;;6.17;;
77304;SDS011;66364;52.622;7.746;2023-07-08T04:11:42;8.07;;;7.27;;
77304;SDS011;66364;52.622;7.746;2023-07-08T04:13:43;7.70;;;6.05;;
77304;SDS011;66364;52.622;7.746;2023-07-08T04:15:44;10.20;;;7.67;;
77304;SDS011;66364;52.622;7.746;2023-07-08T04:17:49;8.90;;;8.10;;
77304;SDS011;66364;52.622;7.746;2023-07-08T04:19:51;8.58;;;7.22;;
77304;SDS011;66364;52.622;7.746;2023-07-08T04:21:52;8.57;;;7.67;;
77304;SDS011;66364;52.622;7.746;2023-07-08T04:23:55;7.12;;;6.58;;
77304;SDS011;66364;52.622;7.746;2023-07-08T04:25:56;9.78;;;8.88;;
77304;SDS011;66364;52.622;7.746;2023-07-08T04:27:58;8.30;;;7.60;;
77304;SDS011;66364;52.622;7.746;2023-07-08T04:29:59;8.80;;;8.00;;
77304;SDS011;66364;52.622;7.746;2023-07-08T04:32:00;8.63;;;7.78;;
77304;SDS011;66364;52.622;7.746;2023-07-08T04:34:01;9.53;;;8.60;;
77304;SDS011;66364;52.622;7.746;2023-07-08T04:36:02;8.70;;;7.90;;
77304;SDS011;66364;52.622;7.746;2023-07-08T04:38:04;9.18;;;8.28;;
77304;SDS011;66364;52.622;7.746;2023-07-08T04:40:09;9.10;;;8.40;;
77304;SDS011;66364;52.622;7.746;2023-07-08T04:42:18;10.63;;;7.35;;
77304;SDS011;66364;52.622;7.746;2023-07-08T04:44:19;9.40;;;8.50;;
77304;SDS011;66364;52.622;7.746;2023-07-08T04:46:22;10.23;;;9.33;;
77304;SDS011;66364;52.622;7.746;2023-07-08T04:48:25;9.05;;;8.15;;
77304;SDS011;66364;52.622;7.746;2023-07-08T04:50:25;8.47;;;7.63;;
77304;SDS011;66364;52.622;7.746;2023-07-08T04:52:26;9.73;;;8.83;;
77304;SDS011;66364;52.622;7.746;2023-07-08T04:54:31;8.80;;;7.97;;
77304;SDS011;66364;52.622;7.746;2023-07-08T04:56:35;10.13;;;9.23;;
77304;SDS011;66364;52.622;7.746;2023-07-08T04:58:37;9.53;;;8.63;;
77304;SDS011;66364;52.622;7.746;2023-07-08T05:00:38;9.13;;;8.17;;
77304;SDS011;66364;52.622;7.746;2023-07-08T05:02:40;13.80;;;12.70;;
77304;SDS011;66364;52.622;7.746;2023-07-08T05:04:41;12.63;;;11.55;;
77304;SDS011;66364;52.622;7.746;2023-07-08T05:06:42;15.37;;;14.07;;
77304;SDS011;66364;52.622;7.746;2023-07-08T05:08:44;12.30;;;11.08;;
77304;SDS011;66364;52.622;7.746;2023-07-08T05:10:45;9.93;;;8.95;;
77304;SDS011;66364;52.622;7.746;2023-07-08T05:12:46;9.87;;;9.03;;
77304;SDS011;66364;52.622;7.746;2023-07-08T05:14:47;8.98;;;8.18;;
77304;SDS011;66364;52.622;7.746;2023-07-08T05:16:48;9.10;;;8.30;;
77304;SDS011;66364;52.622;7.746;2023-07-08T05:18:49;12.33;;;8.67;;
77304;SDS011;66364;52.622;7.746;2023-07-08T05:20:50;9.50;;;8.60;;
77304;SDS011;66364;52.622;7.746;2023-07-08T05:22:52;10.58;;;8.03;;
77304;SDS011;66364;52.622;7.746;2023-07-08T05:24:53;9.30;;;8.40;;
77304;SDS011;66364;52.622;7.746;2023-07-08T05:26:54;11.13;;;8.70;;
77304;SDS011;66364;52.622;7.746;2023-07-08T05:28:54;8.10;;;7.40;;
77304;SDS011;66364;52.622;7.746;2023-07-08T05:30:55;9.00;;;8.20;;
77304;SDS011;66364;52.622;7.746;2023-07-08T05:32:57;8.25;;;7.55;;
77304;SDS011;66364;52.622;7.746;2023-07-08T05:34:58;9.10;;;8.13;;
77304;SDS011;66364;52.622;7.746;2023-07-08T05:36:58;9.17;;;8.47;;
77304;SDS011;66364;52.622;7.746;2023-07-08T05:38:59;9.23;;;7.90;;
77304;SDS011;66364;52.622;7.746;2023-07-08T05:41:00;8.70;;;7.87;;
77304;SDS011;66364;52.622;7.746;2023-07-08T05:43:01;9.20;;;8.50;;
77304;SDS011;66364;52.622;7.746;2023-07-08T05:45:02;9.17;;;7.73;;
77304;SDS011;66364;52.622;7.746;2023-07-08T05:47:04;9.48;;;8.00;;
77304;SDS011;66364;52.622;7.746;2023-07-08T05:49:05;8.90;;;8.17;;
77304;SDS011;66364;52.622;7.746;2023-07-08T05:51:06;8.90;;;8.00;;
77304;SDS011;66364;52.622;7.746;2023-07-08T05:53:09;9.23;;;7.85;;
77304;SDS011;66364;52.622;7.746;2023-07-08T05:55:11;8.55;;;7.42;;
77304;SDS011;66364;52.622;7.746;2023-07-08T05:57:12;8.93;;;8.03;;
77304;SDS011;66364;52.622;7.746;2023-07-08T05:59:13;8.20;;;7.45;;
77304;SDS011;66364;52.622;7.746;2023-07-08T06:01:15;11.35;;;7.60;;
77304;SDS011;66364;52.622;7.746;2023-07-08T06:03:15;8.00;;;7.40;;
77304;SDS011;66364;52.622;7.746;2023-07-08T06:05:16;7.80;;;7.10;;
77304;SDS011;66364;52.622;7.746;2023-07-08T06:07:17;7.90;;;7.10;;
77304;SDS011;66364;52.622;7.746;2023-07-08T06:09:18;8.40;;;7.57;;
77304;SDS011;66364;52.622;7.746;2023-07-08T06:11:19;8.05;;;7.25;;
77304;SDS011;66364;52.622;7.746;2023-07-08T06:13:20;8.73;;;8.00;;
77304;SDS011;66364;52.622;7.746;2023-07-08T06:15:21;8.20;;;6.60;;
77304;SDS011;66364;52.622;7.746;2023-07-08T06:17:22;8.00;;;7.10;;
77304;SDS011;66364;52.622;7.746;2023-07-08T06:19:23;7.83;;;7.08;;
77304;SDS011;66364;52.622;7.746;2023-07-08T06:21:24;7.90;;;7.20;;
77304;SDS011;66364;52.622;7.746;2023-07-08T06:23:26;7.65;;;6.95;;
77304;SDS011;66364;52.622;7.746;2023-07-08T06:25:27;7.80;;;7.10;;
77304;SDS011;66364;52.622;7.746;2023-07-08T06:27:28;7.55;;;6.92;;
77304;SDS011;66364;52.622;7.746;2023-07-08T06:29:29;7.37;;;6.67;;
77304;SDS011;66364;52.622;7.746;2023-07-08T06:31:30;7.03;;;6.53;;
77304;SDS011;66364;52.622;7.746;2023-07-08T06:33:31;7.40;;;6.65;;
77304;SDS011;66364;52.622;7.746;2023-07-08T06:35:31;8.07;;;6.70;;
77304;SDS011;66364;52.622;7.746;2023-07-08T06:37:32;7.30;;;6.60;;
77304;SDS011;66364;52.622;7.746;2023-07-08T06:39:34;7.28;;;6.78;;
77304;SDS011;66364;52.622;7.746;2023-07-08T06:41:34;7.37;;;6.67;;
77304;SDS011;66364;52.622;7.746;2023-07-08T06:43:35;8.00;;;6.63;;
77304;SDS011;66364;52.622;7.746;2023-07-08T06:45:36;7.40;;;6.73;;
77304;SDS011;66364;52.622;7.746;2023-07-08T06:47:38;7.25;;;6.70;;
77304;SDS011;66364;52.622;7.746;2023-07-08T06:49:39;6.58;;;5.83;;
77304;SDS011;66364;52.622;7.746;2023-07-08T06:51:40;7.03;;;6.33;;
77304;SDS011;66364;52.622;7.746;2023-07-08T06:53:41;7.40;;;6.70;;
77304;SDS011;66364;52.622;7.746;2023-07-08T06:55:44;6.77;;;6.03;;
77304;SDS011;66364;52.622;7.746;2023-07-08T06:57:45;7.40;;;6.70;;
77304;SDS011;66364;52.622;7.746;2023-07-08T06:59:46;6.87;;;6.27;;
77304;SDS011;66364;52.622;7.746;2023-07-08T07:01:47;6.07;;;5.67;;
77304;SDS011;66364;52.622;7.746;2023-07-08T07:03:48;7.03;;;6.27;;
77304;SDS011;66364;52.622;7.746;2023-07-08T07:05:50;6.62;;;6.00;;
77304;SDS011;66364;52.622;7.746;2023-07-08T07:07:51;6.43;;;5.93;;
77304;SDS011;66364;52.622;7.746;2023-07-08T07:10:00;6.87;;;6.15;;
77304;SDS011;66364;52.622;7.746;2023-07-08T07:12:01;6.33;;;5.70;;
77304;SDS011;66364;52.622;7.746;2023-07-08T07:14:02;6.62;;;6.03;;
77304;SDS011;66364;52.622;7.746;2023-07-08T07:16:05;6.37;;;5.78;;
77304;SDS011;66364;52.622;7.746;2023-07-08T07:18:07;7.55;;;6.47;;
77304;SDS011;66364;52.622;7.746;2023-07-08T07:20:08;6.37;;;5.75;;
77304;SDS011;66364;52.622;7.746;2023-07-08T07:22:09;7.42;;;6.80;;
77304;SDS011;66364;52.622;7.746;2023-07-08T07:24:10;6.10;;;5.60;;
77304;SDS011;66364;52.622;7.746;2023-07-08T07:26:11;7.07;;;6.40;;
77304;SDS011;66364;52.622;7.746;2023-07-08T07:28:12;7.50;;;5.20;;
77304;SDS011;66364;52.622;7.746;2023-07-08T07:30:14;6.35;;;5.90;;
77304;SDS011;66364;52.622;7.746;2023-07-08T07:32:16;7.50;;;5.47;;
77304;SDS011;66364;52.622;7.746;2023-07-08T07:34:17;6.15;;;5.70;;
77304;SDS011;66364;52.622;7.746;2023-07-08T07:36:18;7.53;;;5.60;;
77304;SDS011;66364;52.622;7.746;2023-07-08T07:38:19;5.83;;;5.43;;
77304;SDS011;66364;52.622;7.746;2023-07-08T07:40:20;6.60;;;5.57;;
77304;SDS011;66364;52.622;7.746;2023-07-08T07:42:21;5.37;;;4.97;;
77304;SDS011;66364;52.622;7.746;2023-07-08T07:44:23;6.08;;;5.45;;
77304;SDS011;66364;52.622;7.746;2023-07-08T07:46:24;6.20;;;5.70;;
77304;SDS011;66364;52.622;7.746;2023-07-08T07:48:25;6.07;;;5.57;;
77304;SDS011;66364;52.622;7.746;2023-07-08T07:50:27;5.50;;;5.00;;
77304;SDS011;66364;52.622;7.746;2023-07-08T07:52:28;7.27;;;6.13;;
77304;SDS011;66364;52.622;7.746;2023-07-08T07:54:29;6.53;;;5.80;;
77304;SDS011;66364;52.622;7.746;2023-07-08T07:56:30;8.18;;;5.20;;
77304;SDS011;66364;52.622;7.746;2023-07-08T07:58:31;5.90;;;5.40;;
77304;SDS011;66364;52.622;7.746;2023-07-08T08:00:32;6.22;;;5.62;;
77304;SDS011;66364;52.622;7.746;2023-07-08T08:02:33;6.53;;;5.27;;
77304;SDS011;66364;52.622;7.746;2023-07-08T08:04:34;7.10;;;5.43;;
77304;SDS011;66364;52.622;7.746;2023-07-08T08:06:35;6.50;;;4.87;;
77304;SDS011;66364;52.622;7.746;2023-07-08T08:08:37;6.35;;;5.47;;
77304;SDS011;66364;52.622;7.746;2023-07-08T08:10:38;6.00;;;5.17;;
77304;SDS011;66364;52.622;7.746;2023-07-08T08:12:39;6.33;;;5.80;;
77304;SDS011;66364;52.622;7.746;2023-07-08T08:14:40;5.87;;;5.10;;
77304;SDS011;66364;52.622;7.746;2023-07-08T08:16:41;6.60;;;4.33;;
77304;SDS011;66364;52.622;7.746;2023-07-08T08:18:41;11.13;;;5.30;;
77304;SDS011;66364;52.622;7.746;2023-07-08T08:20:42;5.23;;;4.80;;
77304;SDS011;66364;52.622;7.746;2023-07-08T08:22:44;5.42;;;4.92;;
77304;SDS011;66364;52.622;7.746;2023-07-08T08:24:45;6.17;;;5.60;;
77304;SDS011;66364;52.622;7.746;2023-07-08T08:26:46;7.43;;;5.30;;
77304;SDS011;66364;52.622;7.746;2023-07-08T08:28:47;6.83;;;4.28;;
77304;SDS011;66364;52.622;7.746;2023-07-08T08:30:49;5.73;;;4.50;;
77304;SDS011;66364;52.622;7.746;2023-07-08T08:32:51;5.58;;;5.03;;
77304;SDS011;66364;52.622;7.746;2023-07-08T08:34:52;5.07;;;4.67;;
77304;SDS011;66364;52.622;7.746;2023-07-08T08:36:54;5.95;;;4.67;;
77304;SDS011;66364;52.622;7.746;2023-07-08T08:38:55;9.30;;;4.87;;
77304;SDS011;66364;52.622;7.746;2023-07-08T08:40:55;5.13;;;4.63;;
77304;SDS011;66364;52.622;7.746;2023-07-08T08:43:02;5.00;;;4.50;;
77304;SDS011;66364;52.622;7.746;2023-07-08T08:45:01;9.50;;;4.75;;
77304;SDS011;66364;52.622;7.746;2023-07-08T08:47:06;4.70;;;4.30;;
77304;SDS011;66364;52.622;7.746;2023-07-08T08:49:21;4.53;;;3.90;;
77304;SDS011;66364;52.622;7.746;2023-07-08T08:51:37;5.10;;;4.65;;
77304;SDS011;66364;52.622;7.746;2023-07-08T08:53:38;5.62;;;4.97;;
77304;SDS011;66364;52.622;7.746;2023-07-08T08:55:40;7.75;;;4.78;;
77304;SDS011;66364;52.622;7.746;2023-07-08T08:57:43;7.62;;;4.35;;
77304;SDS011;66364;52.622;7.746;2023-07-08T09:01:54;5.05;;;4.65;;
77304;SDS011;66364;52.622;7.746;2023-07-08T09:06:11;4.62;;;4.22;;
77304;SDS011;66364;52.622;7.746;2023-07-08T09:10:45;5.00;;;4.60;;
77304;SDS011;66364;52.622;7.746;2023-07-08T09:12:48;4.57;;;4.17;;
77304;SDS011;66364;52.622;7.746;2023-07-08T09:14:52;7.30;;;4.95;;
77304;SDS011;66364;52.622;7.746;2023-07-08T09:19:21;4.10;;;3.80;;
77304;SDS011;66364;52.622;7.746;2023-07-08T09:21:30;5.50;;;4.90;;
77304;SDS011;66364;52.622;7.746;2023-07-08T09:23:39;4.17;;;3.87;;
77304;SDS011;66364;52.622;7.746;2023-07-08T09:25:44;5.53;;;4.62;;
77304;SDS011;66364;52.622;7.746;2023-07-08T09:27:53;5.25;;;4.80;;
77304;SDS011;66364;52.622;7.746;2023-07-08T09:29:55;5.10;;;4.70;;
77304;SDS011;66364;52.622;7.746;2023-07-08T09:31:57;5.00;;;4.33;;
77304;SDS011;66364;52.622;7.746;2023-07-08T09:34:06;6.97;;;4.00;;
77304;SDS011;66364;52.622;7.746;2023-07-08T09:36:16;4.37;;;4.00;;
77304;SDS011;66364;52.622;7.746;2023-07-08T09:38:21;5.73;;;5.00;;
77304;SDS011;66364;52.622;7.746;2023-07-08T09:42:33;5.50;;;4.73;;
77304;SDS011;66364;52.622;7.746;2023-07-08T09:44:35;5.53;;;4.70;;
77304;SDS011;66364;52.622;7.746;2023-07-08T09:46:38;5.03;;;4.50;;
77304;SDS011;66364;52.622;7.746;2023-07-08T09:48:40;8.37;;;5.13;;
77304;SDS011;66364;52.622;7.746;2023-07-08T09:50:42;7.30;;;4.27;;
77304;SDS011;66364;52.622;7.746;2023-07-08T09:52:45;4.77;;;4.30;;
77304;SDS011;66364;52.622;7.746;2023-07-08T09:54:47;4.07;;;3.77;;
77304;SDS011;66364;52.622;7.746;2023-07-08T09:56:58;5.00;;;4.30;;
77304;SDS011;66364;52.622;7.746;2023-07-08T09:59:04;4.43;;;4.07;;
77304;SDS011;66364;52.622;7.746;2023-07-08T10:01:09;6.03;;;5.17;;
77304;SDS011;66364;52.622;7.746;2023-07-08T10:03:20;4.23;;;3.93;;
77304;SDS011;66364;52.622;7.746;2023-07-08T10:05:32;6.70;;;4.73;;
77304;SDS011;66364;52.622;7.746;2023-07-08T10:07:34;6.00;;;4.10;;
77304;SDS011;66364;52.622;7.746;2023-07-08T10:09:35;4.70;;;4.30;;
77304;SDS011;66364;52.622;7.746;2023-07-08T10:11:38;5.00;;;4.43;;
77304;SDS011;66364;52.622;7.746;2023-07-08T10:13:45;5.33;;;4.03;;
77304;SDS011;66364;52.622;7.746;2023-07-08T10:16:00;8.00;;;4.90;;
77304;SDS011;66364;52.622;7.746;2023-07-08T10:18:03;4.93;;;4.53;;
77304;SDS011;66364;52.622;7.746;2023-07-08T10:20:07;6.40;;;4.63;;
77304;SDS011;66364;52.622;7.746;2023-07-08T10:22:24;8.70;;;5.23;;
77304;SDS011;66364;52.622;7.746;2023-07-08T10:24:30;7.47;;;4.97;;
77304;SDS011;66364;52.622;7.746;2023-07-08T10:26:46;4.87;;;4.30;;
77304;SDS011;66364;52.622;7.746;2023-07-08T10:29:09;4.53;;;4.13;;
77304;SDS011;66364;52.622;7.746;2023-07-08T10:33:40;5.03;;;4.10;;
77304;SDS011;66364;52.622;7.746;2023-07-08T10:42:33;5.80;;;5.30;;
77304;SDS011;66364;52.622;7.746;2023-07-08T10:44:54;4.90;;;4.33;;
77304;SDS011;66364;52.622;7.746;2023-07-08T10:49:14;5.93;;;4.90;;
77304;SDS011;66364;52.622;7.746;2023-07-08T10:56:40;5.10;;;4.70;;
77304;SDS011;66364;52.622;7.746;2023-07-08T11:00:19;5.97;;;5.40;;
77304;SDS011;66364;52.622;7.746;2023-07-08T11:06:57;5.23;;;4.73;;
77304;SDS011;66364;52.622;7.746;2023-07-08T11:09:06;5.77;;;4.87;;
77304;SDS011;66364;52.622;7.746;2023-07-08T11:13:31;5.73;;;5.23;;
77304;SDS011;66364;52.622;7.746;2023-07-08T11:17:51;6.13;;;5.17;;
77304;SDS011;66364;52.622;7.746;2023-07-08T11:22:27;5.50;;;4.87;;
77304;SDS011;66364;52.622;7.746;2023-07-08T11:26:44;5.23;;;4.77;;
77304;SDS011;66364;52.622;7.746;2023-07-08T11:28:54;7.13;;;5.30;;
77304;SDS011;66364;52.622;7.746;2023-07-08T11:31:01;5.50;;;5.10;;
77304;SDS011;66364;52.622;7.746;2023-07-08T11:33:04;5.40;;;5.00;;
77304;SDS011;66364;52.622;7.746;2023-07-08T11:35:13;6.10;;;5.40;;
77304;SDS011;66364;52.622;7.746;2023-07-08T11:37:21;5.00;;;4.60;;
77304;SDS011;66364;52.622;7.746;2023-07-08T11:39:26;6.00;;;5.40;;
77304;SDS011;66364;52.622;7.746;2023-07-08T11:41:36;5.10;;;4.63;;
77304;SDS011;66364;52.622;7.746;2023-07-08T11:43:40;4.40;;;4.00;;
77304;SDS011;66364;52.622;7.746;2023-07-08T11:45:44;6.90;;;5.30;;
77304;SDS011;66364;52.622;7.746;2023-07-08T11:47:47;5.33;;;4.70;;
77304;SDS011;66364;52.622;7.746;2023-07-08T11:49:50;6.07;;;5.53;;
77304;SDS011;66364;52.622;7.746;2023-07-08T11:51:53;7.80;;;4.90;;
77304;SDS011;66364;52.622;7.746;2023-07-08T11:54:03;5.10;;;4.70;;
77304;SDS011;66364;52.622;7.746;2023-07-08T11:58:31;5.53;;;5.00;;
77304;SDS011;66364;52.622;7.746;2023-07-08T12:00:35;5.20;;;4.80;;
77304;SDS011;66364;52.622;7.746;2023-07-08T12:02:47;7.80;;;5.60;;
77304;SDS011;66364;52.622;7.746;2023-07-08T12:07:12;4.87;;;4.40;;
77304;SDS011;66364;52.622;7.746;2023-07-08T12:09:28;5.80;;;5.20;;
77304;SDS011;66364;52.622;7.746;2023-07-08T12:11:31;5.80;;;5.20;;
77304;SDS011;66364;52.622;7.746;2023-07-08T12:13:34;5.67;;;5.17;;
77304;SDS011;66364;52.622;7.746;2023-07-08T12:15:35;10.57;;;4.90;;
77304;SDS011;66364;52.622;7.746;2023-07-08T12:17:38;7.30;;;5.53;;
77304;SDS011;66364;52.622;7.746;2023-07-08T12:19:40;4.50;;;4.20;;
77304;SDS011;66364;52.622;7.746;2023-07-08T12:21:51;5.53;;;5.03;;
77304;SDS011;66364;52.622;7.746;2023-07-08T12:23:52;5.43;;;5.03;;
77304;SDS011;66364;52.622;7.746;2023-07-08T12:25:56;5.70;;;5.30;;
77304;SDS011;66364;52.622;7.746;2023-07-08T12:27:58;5.47;;;4.97;;
77304;SDS011;66364;52.622;7.746;2023-07-08T12:29:59;5.10;;;4.60;;
77304;SDS011;66364;52.622;7.746;2023-07-08T12:31:59;5.83;;;5.23;;
77304;SDS011;66364;52.622;7.746;2023-07-08T12:34:01;8.47;;;5.30;;
77304;SDS011;66364;52.622;7.746;2023-07-08T12:36:02;5.43;;;4.93;;
77304;SDS011;66364;52.622;7.746;2023-07-08T12:40:22;5.90;;;5.40;;
77304;SDS011;66364;52.622;7.746;2023-07-08T12:42:24;6.60;;;5.10;;
77304;SDS011;66364;52.622;7.746;2023-07-08T12:44:26;5.43;;;5.00;;
77304;SDS011;66364;52.622;7.746;2023-07-08T12:46:27;5.60;;;5.10;;
77304;SDS011;66364;52.622;7.746;2023-07-08T12:48:36;7.50;;;5.60;;
77304;SDS011;66364;52.622;7.746;2023-07-08T12:50:35;6.50;;;5.60;;
77304;SDS011;66364;52.622;7.746;2023-07-08T12:52:36;7.63;;;5.17;;
77304;SDS011;66364;52.622;7.746;2023-07-08T12:54:37;8.40;;;6.00;;
77304;SDS011;66364;52.622;7.746;2023-07-08T12:56:39;6.60;;;6.00;;
77304;SDS011;66364;52.622;7.746;2023-07-08T12:58:43;6.67;;;6.07;;
77304;SDS011;66364;52.622;7.746;2023-07-08T13:00:46;6.40;;;5.80;;
77304;SDS011;66364;52.622;7.746;2023-07-08T13:02:48;6.00;;;5.50;;
77304;SDS011;66364;52.622;7.746;2023-07-08T13:04:55;7.40;;;5.40;;
77304;SDS011;66364;52.622;7.746;2023-07-08T13:06:57;6.10;;;5.50;;
77304;SDS011;66364;52.622;7.746;2023-07-08T13:11:36;5.23;;;4.73;;
77304;SDS011;66364;52.622;7.746;2023-07-08T13:13:41;6.07;;;5.47;;
77304;SDS011;66364;52.622;7.746;2023-07-08T13:15:58;6.70;;;5.73;;
77304;SDS011;66364;52.622;7.746;2023-07-08T13:18:00;6.30;;;5.80;;
77304;SDS011;66364;52.622;7.746;2023-07-08T13:20:03;6.10;;;5.50;;
77304;SDS011;66364;52.622;7.746;2023-07-08T13:22:05;6.93;;;6.23;;